Погода Перелескина неделю

Костанайская область, Казахстан

16 - 22 июня
  • 16июня
    Сегодня
    +19°
    +35°
    Практически безоблачно
    ВремяПогодаТемператураВлажностьДавлениеВетер, м/сВероятность осадков
    02:00Облачно с прояснениями+24°C58 %742 мм0.9 м/с2 %
    05:00Практически безоблачно+20°C83 %742 мм1.8 м/с2 %
    08:00Ясно и безоблачно+27°C58 %743 мм1.5 м/с2 %
    11:00Ясно и безоблачно+32°C35 %743 мм2.7 м/с2 %
    14:00Практически безоблачно+34°C31 %743 мм2.6 м/с4 %
    17:00Облачно с прояснениями+32°C45 %743 мм3.7 м/с16 %
    20:00Облачно с прояснениями+29°C61 %743 мм0.9 м/с5 %
    23:00Ясно и безоблачно+23°C73 %742 мм2.0 м/с1 %
  • 17июня
    Понедельник
    +18°
    +33°
    Практически безоблачно
    ВремяПогодаТемператураВлажностьДавлениеВетер, м/сВероятность осадков
    02:00Небольшая облачность+21°C87 %742 мм1.9 м/с2 %
    05:00Практически безоблачно+20°C83 %742 мм1.8 м/с2 %
    08:00Ясно и безоблачно+26°C59 %743 мм2.6 м/с2 %
    11:00Ясно и безоблачно+30°C41 %743 мм3.3 м/с2 %
    14:00Практически безоблачно+33°C36 %743 мм3.6 м/с11 %
    17:00Облачно с прояснениями+30°C45 %743 мм4.4 м/с43 %
    20:00Облачно с прояснениями+28°C54 %743 мм2.8 м/с29 %
    23:00Облачно с прояснениями+22°C70 %743 мм1.6 м/с2 %
  • 18июня
    Вторник
    +15°
    +29°
    Ясно и безоблачно
    ВремяПогодаТемператураВлажностьДавлениеВетер, м/сВероятность осадков
    02:00Практически безоблачно+20°C81 %744 мм1.9 м/с2 %
    05:00Ясно и безоблачно+19°C77 %744 мм3.3 м/с3 %
    08:00Ясно и безоблачно+23°C58 %746 мм3.5 м/с6 %
    11:00Ясно и безоблачно+27°C38 %746 мм4.0 м/с6 %
    14:00Ясно и безоблачно+29°C33 %746 мм4.5 м/с3 %
    17:00Ясно и безоблачно+28°C32 %746 мм4.3 м/с2 %
    20:00Ясно и безоблачно+26°C31 %746 мм3.0 м/с2 %
    23:00Практически безоблачно+21°C42 %747 мм3.2 м/с2 %
  • 19июня
    Среда
    +19°
    +30°
    Ясно и безоблачно
    ВремяПогодаТемператураВлажностьДавлениеВетер, м/сВероятность осадков
    02:00Практически безоблачно+19°C51 %746 мм3.0 м/с2 %
    05:00Ясно и безоблачно+17°C59 %746 мм2.4 м/с2 %
    08:00Ясно и безоблачно+22°C45 %747 мм2.5 м/с2 %
    11:00Ясно и безоблачно+26°C30 %746 мм3.6 м/с2 %
    14:00Ясно и безоблачно+29°C25 %745 мм3.6 м/с2 %
    17:00Ясно и безоблачно+29°C24 %744 мм3.8 м/с2 %
    20:00Ясно и безоблачно+27°C30 %743 мм2.7 м/с2 %
    23:00Ясно и безоблачно+23°C38 %742 мм4.8 м/с2 %
Мы используем cookies
Соглашаюсь